createdAt,value
2018-07-01T00:01:11.698Z,95394.11
2018-07-01T00:03:46.131Z,95392.45
2018-07-01T00:06:17.237Z,95387.92
2018-07-01T00:08:46.293Z,95391.23
2018-07-01T00:11:16.281Z,95392.89
2018-07-01T00:13:46.301Z,95394.12
2018-07-01T00:16:16.322Z,95397.66
2018-07-01T00:18:46.427Z,95397.89
2018-07-01T00:21:15.462Z,95400.45
2018-07-01T00:23:44.523Z,95397.84
2018-07-01T00:26:15.495Z,95397.16
2018-07-01T00:28:45.515Z,95392.64
2018-07-01T00:31:14.586Z,95390.58
2018-07-01T00:33:43.633Z,95396.30
2018-07-01T00:36:17.747Z,95398.92
2018-07-01T00:38:46.808Z,95398.80
2018-07-01T00:41:21.448Z,95401.39
2018-07-01T00:43:55.260Z,95399.55
2018-07-01T00:46:24.309Z,95400.52
2018-07-01T00:48:53.358Z,95404.13
2018-07-01T00:51:22.421Z,95406.23
2018-07-01T00:53:51.512Z,95404.89
2018-07-01T00:56:20.580Z,95407.67
2018-07-01T00:58:49.643Z,95409.36
2018-07-01T01:01:18.747Z,95412.48
2018-07-01T01:03:48.777Z,95412.96
2018-07-01T01:06:18.797Z,95413.20
2018-07-01T01:08:47.853Z,95409.64
2018-07-01T01:11:16.906Z,95413.63
2018-07-01T01:16:25.222Z,95411.89
2018-07-01T01:18:55.173Z,95409.00
2018-07-01T01:21:25.178Z,95413.13
2018-07-01T01:26:29.929Z,95410.25
2018-07-01T01:28:58.995Z,95408.66
2018-07-01T01:31:28.092Z,95402.75
2018-07-01T01:33:57.129Z,95405.24
2018-07-01T01:36:26.209Z,95397.98
2018-07-01T01:38:55.269Z,95402.47
2018-07-01T01:41:25.330Z,95404.14
2018-07-01T01:43:57.701Z,95404.41
2018-07-01T01:46:26.749Z,95399.26
2018-07-01T01:51:31.569Z,95407.04
2018-07-01T01:56:36.341Z,95406.68
2018-07-01T01:59:13.781Z,95411.23
2018-07-01T02:01:46.578Z,95412.58
2018-07-01T02:04:17.561Z,95411.02
2018-07-01T02:06:46.613Z,95413.63
2018-07-01T02:09:15.697Z,95413.97
2018-07-01T02:14:08.692Z,95409.03
2018-07-01T02:16:37.761Z,95411.97
2018-07-01T02:19:06.826Z,95415.20
2018-07-01T02:21:37.839Z,95411.00
2018-07-01T02:24:07.861Z,95414.51
2018-07-01T02:26:37.886Z,95415.56
2018-07-01T02:29:06.933Z,95415.61
2018-07-01T02:31:35.987Z,95411.53
2018-07-01T02:34:06.956Z,95417.50
2018-07-01T02:36:36.937Z,95417.83
2018-07-01T02:39:06.143Z,95419.73
2018-07-01T02:41:36.214Z,95421.16
2018-07-01T02:44:05.311Z,95423.71
2018-07-01T02:46:44.699Z,95432.48
2018-07-01T02:49:13.753Z,95424.89
2018-07-01T02:54:18.646Z,95422.70
2018-07-01T02:56:47.702Z,95418.84
2018-07-01T02:59:16.747Z,95420.61
2018-07-01T03:01:45.831Z,95418.36
2018-07-01T03:04:14.973Z,95420.02
2018-07-01T03:06:43.993Z,95417.03
2018-07-01T03:09:15.020Z,95419.50
2018-07-01T03:11:46.022Z,95420.20
2018-07-01T03:14:15.082Z,95425.97
2018-07-01T03:16:44.141Z,95428.11
2018-07-01T03:21:49.895Z,95427.47
2018-07-01T03:24:18.953Z,95423.18
2018-07-01T03:29:23.772Z,95428.35
2018-07-01T03:34:28.517Z,95429.22
2018-07-01T03:39:33.599Z,95426.60
2018-07-01T03:42:02.703Z,95431.50
2018-07-01T03:44:32.678Z,95432.00
2018-07-01T03:47:01.725Z,95434.87
2018-07-01T03:49:30.886Z,95432.20
2018-07-01T03:52:01.928Z,95428.81
2018-07-01T03:54:31.009Z,95428.81
2018-07-01T03:57:00.103Z,95431.78
2018-07-01T03:59:30.153Z,95430.90
2018-07-01T04:01:59.509Z,95427.73
2018-07-01T04:04:28.594Z,95429.94
2018-07-01T04:06:57.676Z,95434.92
2018-07-01T04:12:02.316Z,95435.36
2018-07-01T04:14:33.352Z,95436.46
2018-07-01T04:17:09.652Z,95435.16
2018-07-01T04:19:38.734Z,95436.39
2018-07-01T04:22:08.717Z,95442.75
2018-07-01T04:24:38.740Z,95443.24
2018-07-01T04:27:11.721Z,95447.17
2018-07-01T04:29:40.772Z,95447.94
2018-07-01T04:32:13.475Z,95447.39
2018-07-01T04:34:42.592Z,95455.08
2018-07-01T04:37:11.649Z,95462.57
2018-07-01T04:39:40.720Z,95460.59
2018-07-01T04:42:09.776Z,95464.91
2018-07-01T04:44:38.922Z,95458.09
2018-07-01T04:47:07.997Z,95464.44
2018-07-01T04:49:37.054Z,95459.37
2018-07-01T04:54:53.105Z,95453.11
2018-07-01T04:57:22.161Z,95456.59
2018-07-01T04:59:51.209Z,95459.94
2018-07-01T05:02:20.550Z,95461.13
2018-07-01T05:04:50.536Z,95459.09
2018-07-01T05:07:19.582Z,95459.36
2018-07-01T05:09:49.558Z,95457.80
2018-07-01T05:12:20.597Z,95457.94
2018-07-01T05:14:49.665Z,95457.16
2018-07-01T05:17:18.716Z,95452.72
2018-07-01T05:19:51.780Z,95458.03
2018-07-01T05:22:21.843Z,95457.20
2018-07-01T05:24:50.906Z,95457.02
2018-07-01T05:27:21.085Z,95459.56
2018-07-01T05:29:50.284Z,95461.41
2018-07-01T05:32:27.525Z,95463.11
2018-07-01T05:37:32.289Z,95474.94
2018-07-01T05:40:01.355Z,95476.13
2018-07-01T05:42:30.768Z,95473.47
2018-07-01T05:44:59.816Z,95469.34
2018-07-01T05:52:46.216Z,95466.98
2018-07-01T05:57:50.987Z,95466.87
2018-07-01T06:00:24.732Z,95468.41
2018-07-01T06:02:53.781Z,95469.81
2018-07-01T06:05:22.860Z,95467.27
2018-07-01T06:07:51.942Z,95465.79
2018-07-01T06:10:21.294Z,95465.33
2018-07-01T06:12:50.329Z,95464.14
2018-07-01T06:15:19.439Z,95465.11
2018-07-01T06:19:50.026Z,95471.09
2018-07-01T06:22:19.154Z,95471.54
2018-07-01T06:27:24.058Z,95474.16
2018-07-01T06:29:53.116Z,95473.89
2018-07-01T06:32:32.096Z,95476.18
2018-07-01T06:35:01.241Z,95476.11
2018-07-01T06:37:31.304Z,95475.13
2018-07-01T06:40:00.359Z,95477.37
2018-07-01T06:42:29.439Z,95474.37
2018-07-01T06:44:58.639Z,95476.99
2018-07-01T06:50:03.409Z,95477.50
2018-07-01T06:55:08.255Z,95475.00
2018-07-01T06:57:48.310Z,95475.69
2018-07-01T07:00:19.474Z,95472.86
2018-07-01T07:02:52.072Z,95475.13
2018-07-01T07:05:22.030Z,95472.02
2018-07-01T07:10:26.923Z,95468.60
2018-07-01T07:12:56.011Z,95467.38
2018-07-01T07:15:25.041Z,95474.55
2018-07-01T07:17:54.093Z,95477.43
2018-07-01T07:20:30.745Z,95475.24
2018-07-01T07:28:14.729Z,95473.53
2018-07-01T07:30:55.628Z,95462.52
2018-07-01T07:33:26.720Z,95468.61
2018-07-01T07:35:55.757Z,95464.20
2018-07-01T07:38:25.245Z,95466.41
2018-07-01T07:43:30.293Z,95465.42
2018-07-01T07:48:35.085Z,95464.17
2018-07-01T07:51:04.360Z,95464.36
2018-07-01T07:53:33.453Z,95465.22
2018-07-01T07:58:38.241Z,95468.46
2018-07-01T08:01:07.681Z,95471.76
2018-07-01T08:03:36.753Z,95467.97
2018-07-01T08:06:05.898Z,95468.52
2018-07-01T08:08:35.023Z,95467.73
2018-07-01T08:11:05.098Z,95466.17
2018-07-01T08:13:34.348Z,95466.13
2018-07-01T08:16:05.425Z,95464.95
2018-07-01T08:18:36.519Z,95460.44
2018-07-01T08:21:05.562Z,95459.56
2018-07-01T08:23:35.551Z,95457.56
2018-07-01T08:26:04.841Z,95453.95
2018-07-01T08:31:09.636Z,95450.34
2018-07-01T08:33:38.700Z,95459.09
2018-07-01T08:36:08.880Z,95451.23
2018-07-01T08:38:37.929Z,95458.12
2018-07-01T08:41:08.886Z,95461.52
2018-07-01T08:43:52.354Z,95465.37
2018-07-01T08:46:21.512Z,95460.62
2018-07-01T08:48:50.640Z,95465.06
2018-07-01T08:51:21.720Z,95464.55
2018-07-01T08:53:51.763Z,95467.06
2018-07-01T08:56:28.807Z,95464.65
2018-07-01T08:58:57.903Z,95467.91
2018-07-01T09:01:42.784Z,95467.84
2018-07-01T09:09:23.326Z,95473.30
2018-07-01T09:11:55.588Z,95469.11
2018-07-01T09:14:26.689Z,95467.81
2018-07-01T09:16:55.790Z,95469.61
2018-07-01T09:19:32.200Z,95478.09
2018-07-01T09:22:07.182Z,95478.62
2018-07-01T09:24:36.246Z,95471.06
2018-07-01T09:27:05.312Z,95476.22
2018-07-01T09:29:34.513Z,95472.33
2018-07-01T09:32:13.545Z,95466.13
2018-07-01T09:34:42.638Z,95468.08
2018-07-01T09:37:11.753Z,95464.28
2018-07-01T09:39:40.988Z,95469.85
2018-07-01T09:42:10.972Z,95469.42
2018-07-01T09:47:15.899Z,95468.34
2018-07-01T09:49:44.933Z,95464.84
2018-07-01T09:52:13.990Z,95470.84
2018-07-01T09:54:43.256Z,95471.34
2018-07-01T09:59:49.289Z,95475.34
2018-07-01T10:02:18.702Z,95470.84
2018-07-01T10:04:47.730Z,95466.27
2018-07-01T10:07:17.742Z,95470.64
2018-07-01T10:09:48.781Z,95464.67
2018-07-01T10:12:28.646Z,95462.48
2018-07-01T10:14:57.775Z,95458.41
2018-07-01T10:17:27.738Z,95461.20
2018-07-01T10:19:56.825Z,95455.93
2018-07-01T10:22:27.881Z,95457.16
2018-07-01T10:25:01.189Z,95451.08
2018-07-01T10:27:30.243Z,95449.09
2018-07-01T10:29:59.389Z,95446.62
2018-07-01T10:32:35.754Z,95448.45
2018-07-01T10:35:06.789Z,95445.04
2018-07-01T10:37:39.266Z,95447.00
2018-07-01T10:40:12.198Z,95443.36
2018-07-01T10:42:41.424Z,95442.45
2018-07-01T10:45:10.493Z,95444.09
2018-07-01T10:47:40.470Z,95447.30
2018-07-01T10:50:11.575Z,95444.32
2018-07-01T10:52:50.037Z,95443.63
2018-07-01T10:55:19.350Z,95448.41
2018-07-01T10:57:48.391Z,95452.62
2018-07-01T11:00:17.451Z,95450.60
2018-07-01T11:02:47.559Z,95443.50
2018-07-01T11:05:16.879Z,95445.11
2018-07-01T11:07:45.945Z,95443.41
2018-07-01T11:10:15.012Z,95442.98
2018-07-01T11:12:44.361Z,95446.25
2018-07-01T11:15:16.863Z,95440.70
2018-07-01T11:17:45.919Z,95432.36
2018-07-01T11:20:16.956Z,95433.34
2018-07-01T11:22:45.932Z,95425.32
2018-07-01T11:25:18.962Z,95423.13
2018-07-01T11:27:48.022Z,95433.66
2018-07-01T11:30:17.275Z,95440.57
2018-07-01T11:32:48.551Z,95444.87
2018-07-01T11:35:17.593Z,95435.82
2018-07-01T11:37:46.649Z,95433.63
2018-07-01T11:42:51.511Z,95435.67
2018-07-01T11:45:24.785Z,95438.18
2018-07-01T11:47:53.843Z,95441.59
2018-07-01T11:50:23.909Z,95440.25
2018-07-01T11:55:28.774Z,95437.36
2018-07-01T11:57:57.997Z,95436.74
2018-07-01T12:00:27.064Z,95440.50
2018-07-01T12:02:59.858Z,95428.39
2018-07-01T12:05:28.971Z,95426.59
2018-07-01T12:07:57.981Z,95421.77
2018-07-01T12:10:27.118Z,95423.87
2018-07-01T12:12:56.195Z,95422.23
2018-07-01T12:15:25.253Z,95422.30
2018-07-01T12:17:55.259Z,95424.43
2018-07-01T12:20:24.583Z,95426.61
2018-07-01T12:25:29.527Z,95431.77
2018-07-01T12:27:58.594Z,95424.04
2018-07-01T12:30:28.887Z,95415.11
2018-07-01T12:32:57.994Z,95419.39
2018-07-01T12:35:34.615Z,95412.80
2018-07-01T12:38:05.595Z,95413.78
2018-07-01T12:40:34.657Z,95417.44
2018-07-01T12:45:39.578Z,95409.28
2018-07-01T12:48:08.639Z,95413.50
2018-07-01T12:50:37.705Z,95413.75
2018-07-01T12:53:06.787Z,95409.48
2018-07-01T12:55:35.838Z,95403.23
2018-07-01T12:58:05.046Z,95404.18
2018-07-01T13:00:34.302Z,95403.37
2018-07-01T13:03:03.341Z,95404.37
2018-07-01T13:05:32.400Z,95402.94
2018-07-01T13:08:03.356Z,95403.44
2018-07-01T13:13:08.216Z,95401.06
2018-07-01T13:15:37.658Z,95399.17
2018-07-01T13:18:07.734Z,95391.93
2018-07-01T13:23:16.861Z,95386.59
2018-07-01T13:25:46.901Z,95384.04
2018-07-01T13:28:17.049Z,95376.76
2018-07-01T13:30:46.207Z,95379.08
2018-07-01T13:33:15.242Z,95382.56
2018-07-01T13:38:20.086Z,95383.77
2018-07-01T13:40:50.080Z,95385.05
2018-07-01T13:43:19.171Z,95381.70
2018-07-01T13:45:48.216Z,95381.50
2018-07-01T13:50:53.157Z,95373.90
2018-07-01T13:53:24.298Z,95378.05
2018-07-01T13:55:54.676Z,95374.73
2018-07-01T13:58:24.744Z,95379.60
2018-07-01T14:00:58.824Z,95377.48
2018-07-01T14:03:27.853Z,95375.91
2018-07-01T14:06:00.827Z,95367.36
2018-07-01T14:08:29.992Z,95367.27
2018-07-01T14:10:59.139Z,95369.25
2018-07-01T14:13:28.193Z,95371.18
2018-07-01T14:15:57.261Z,95370.00
2018-07-01T14:18:26.327Z,95370.08
2018-07-01T14:20:56.614Z,95371.33
2018-07-01T14:23:25.675Z,95372.86
2018-07-01T14:25:54.745Z,95369.61
2018-07-01T14:28:23.802Z,95374.83
2018-07-01T14:30:53.051Z,95361.19
2018-07-01T14:33:22.113Z,95368.22
2018-07-01T14:35:51.182Z,95369.47
2018-07-01T14:38:20.251Z,95363.89
2018-07-01T14:40:50.506Z,95362.91
2018-07-01T14:43:19.744Z,95359.87
2018-07-01T14:45:50.826Z,95362.14
2018-07-01T14:48:19.895Z,95362.86
2018-07-01T14:50:48.958Z,95362.77
2018-07-01T14:53:19.237Z,95358.95
2018-07-01T14:55:48.408Z,95355.09
2018-07-01T15:00:53.249Z,95349.98
2018-07-01T15:03:22.321Z,95352.56
2018-07-01T15:05:51.377Z,95355.33
2018-07-01T15:08:20.453Z,95355.46
2018-07-01T15:10:49.774Z,95349.05
2018-07-01T15:13:18.821Z,95343.00
2018-07-01T15:15:47.885Z,95348.83
2018-07-01T15:18:16.973Z,95349.64
2018-07-01T15:23:23.849Z,95340.78
2018-07-01T15:25:54.849Z,95343.27
2018-07-01T15:28:23.986Z,95346.09
2018-07-01T15:30:53.184Z,95343.72
2018-07-01T15:35:59.026Z,95346.70
2018-07-01T15:38:28.310Z,95344.30
2018-07-01T15:40:58.362Z,95340.45
2018-07-01T15:48:45.966Z,95330.55
2018-07-01T15:51:14.971Z,95336.17
2018-07-01T15:53:44.533Z,95331.49
2018-07-01T15:58:49.602Z,95325.57
2018-07-01T16:01:18.701Z,95326.77
2018-07-01T16:03:47.929Z,95327.99
2018-07-01T16:08:52.850Z,95330.44
2018-07-01T16:11:22.059Z,95326.00
2018-07-01T16:13:51.143Z,95330.11
2018-07-01T16:18:57.053Z,95330.75
2018-07-01T16:24:01.979Z,95332.18
2018-07-01T16:29:06.837Z,95330.37
2018-07-01T16:31:37.851Z,95337.02
2018-07-01T16:34:09.086Z,95336.91
2018-07-01T16:36:38.313Z,95346.41
2018-07-01T16:39:07.341Z,95349.94
2018-07-01T16:41:36.407Z,95345.20
2018-07-01T16:44:05.458Z,95350.84
2018-07-01T16:46:34.669Z,95351.11
2018-07-01T16:54:23.697Z,95352.34
2018-07-01T16:56:53.731Z,95351.48
2018-07-01T16:59:22.871Z,95359.90
2018-07-01T17:01:52.006Z,95356.52
2018-07-01T17:04:21.070Z,95354.97
2018-07-01T17:06:50.214Z,95361.27
2018-07-01T17:11:55.237Z,95359.16
2018-07-01T17:14:24.291Z,95356.61
2018-07-01T17:16:57.270Z,95358.01
2018-07-01T17:22:02.144Z,95360.40
2018-07-01T17:24:32.125Z,95360.89
2018-07-01T17:27:04.574Z,95361.77
2018-07-01T17:37:34.603Z,95361.92
2018-07-01T17:42:41.949Z,95364.76
2018-07-01T17:45:34.521Z,95366.59
2018-07-01T17:48:04.583Z,95365.77
2018-07-01T17:50:48.150Z,95370.36
2018-07-01T17:53:19.209Z,95366.91
2018-07-01T17:55:52.160Z,95367.70
2018-07-01T17:58:46.111Z,95369.70
2018-07-01T18:01:15.176Z,95372.67
2018-07-01T18:03:48.080Z,95369.48
2018-07-01T18:06:17.432Z,95377.29
2018-07-01T18:08:46.492Z,95373.87
2018-07-01T18:11:15.700Z,95375.08
2018-07-01T18:13:46.732Z,95375.06
2018-07-01T18:16:26.962Z,95377.58
2018-07-01T18:21:41.213Z,95376.94
2018-07-01T18:24:35.141Z,95379.72
2018-07-01T18:26:36.273Z,95380.59
2018-07-01T18:29:16.772Z,95379.95
2018-07-01T18:31:46.900Z,95379.09
2018-07-01T18:34:15.861Z,95383.19
2018-07-01T18:36:44.940Z,95381.31
2018-07-01T18:39:14.055Z,95382.34
2018-07-01T18:44:18.905Z,95381.52
2018-07-01T18:49:23.795Z,95387.64
2018-07-01T18:51:57.118Z,95387.70
2018-07-01T18:57:01.940Z,95386.91
2018-07-01T18:59:30.983Z,95385.11
2018-07-01T19:02:00.953Z,95387.34
2018-07-01T19:04:30.020Z,95389.13
2018-07-01T19:07:01.235Z,95384.00
2018-07-01T19:09:31.171Z,95389.91
2018-07-01T19:12:04.534Z,95391.03
2018-07-01T19:14:33.582Z,95387.53
2018-07-01T19:22:18.294Z,95396.89
2018-07-01T19:24:47.354Z,95395.48
2018-07-01T19:27:19.476Z,95397.58
2018-07-01T19:29:48.536Z,95396.69
2018-07-01T19:32:17.616Z,95400.47
2018-07-01T19:34:46.725Z,95405.78
2018-07-01T19:37:17.691Z,95405.81
2018-07-01T19:39:51.401Z,95409.83
2018-07-01T19:42:20.477Z,95405.98
2018-07-01T19:44:49.493Z,95407.34
2018-07-01T19:49:54.331Z,95414.77
2018-07-01T19:52:30.797Z,95416.88
2018-07-01T19:55:07.867Z,95421.52
2018-07-01T20:00:22.142Z,95420.59
2018-07-01T20:05:30.381Z,95415.92
2018-07-01T20:08:01.410Z,95415.05
2018-07-01T20:13:07.149Z,95420.16
2018-07-01T20:15:36.193Z,95421.08
2018-07-01T20:18:07.149Z,95425.84
2018-07-01T20:28:25.680Z,95419.50
2018-07-01T20:31:01.798Z,95422.52
2018-07-01T20:33:36.608Z,95421.42
2018-07-01T20:38:41.378Z,95418.04
2018-07-01T20:41:11.368Z,95419.30
2018-07-01T20:43:40.375Z,95420.34
2018-07-01T20:48:47.077Z,95423.47
2018-07-01T20:51:17.082Z,95422.01
2018-07-01T20:56:21.864Z,95422.51
2018-07-01T20:58:50.917Z,95419.86
2018-07-01T21:01:19.978Z,95425.91
2018-07-01T21:06:24.801Z,95421.84
2018-07-01T21:11:29.666Z,95419.98
2018-07-01T21:13:58.736Z,95423.45
2018-07-01T21:16:27.835Z,95426.45
2018-07-01T21:21:32.606Z,95419.56
2018-07-01T21:24:02.619Z,95414.95
2018-07-01T21:26:31.673Z,95414.45
2018-07-01T21:29:02.721Z,95412.34
2018-07-01T21:31:32.772Z,95413.41
2018-07-01T21:34:02.802Z,95410.70
2018-07-01T21:39:07.561Z,95406.78
2018-07-01T21:41:37.567Z,95406.45
2018-07-01T21:46:42.349Z,95404.05
2018-07-01T21:49:11.466Z,95400.27
2018-07-01T21:54:16.286Z,95393.52
2018-07-01T21:56:45.413Z,95390.64
2018-07-01T21:59:15.399Z,95393.52
2018-07-01T22:06:56.948Z,95394.16
2018-07-01T22:09:29.261Z,95396.51
2018-07-01T22:12:16.272Z,95395.25
2018-07-01T22:14:45.330Z,95397.13
2018-07-01T22:17:14.386Z,95398.72
2018-07-01T22:22:19.153Z,95398.64
2018-07-01T22:24:48.239Z,95399.91
2018-07-01T22:27:17.286Z,95396.95
2018-07-01T22:29:46.329Z,95397.72
2018-07-01T22:32:16.433Z,95395.66
2018-07-01T22:34:45.503Z,95394.73
2018-07-01T22:37:14.546Z,95390.50
2018-07-01T22:39:43.604Z,95390.42
2018-07-01T22:42:12.665Z,95388.94
2018-07-01T22:44:41.718Z,95390.53
2018-07-01T22:47:10.761Z,95388.34
2018-07-01T22:49:39.820Z,95388.42
2018-07-01T22:52:08.872Z,95395.59
2018-07-01T22:54:37.958Z,95399.16
2018-07-01T22:57:07.016Z,95400.69
2018-07-01T22:59:36.057Z,95400.13
2018-07-01T23:02:06.064Z,95398.88
2018-07-01T23:04:36.030Z,95399.20
2018-07-01T23:09:40.873Z,95398.80
2018-07-01T23:12:09.937Z,95397.50
2018-07-01T23:14:47.212Z,95398.82
2018-07-01T23:17:17.235Z,95399.92
2018-07-01T23:19:46.300Z,95398.84
2018-07-01T23:22:15.390Z,95399.68
2018-07-01T23:27:20.219Z,95397.47
2018-07-01T23:29:49.294Z,95394.78
2018-07-01T23:32:23.091Z,95395.81
2018-07-01T23:34:53.047Z,95394.38
2018-07-01T23:39:57.881Z,95388.96
2018-07-01T23:42:27.945Z,95389.16
2018-07-01T23:44:57.013Z,95385.88
2018-07-01T23:47:26.076Z,95382.44
2018-07-01T23:49:55.127Z,95379.33
2018-07-01T23:52:27.253Z,95380.26
2018-07-01T23:54:56.301Z,95378.15
